Boyntonville, New York
Current Conditions -  °F | °C
As of 8:01 PM on Saturday 22 Nov 2014 (Local Time) from KDDH Reporting Station
Overcast Overcast  
Wind Chill:   Ceiling: 2900
Heat Index:   Visibility: 10mi
Dew Point: -8°   Wind: 6mph
Humidity: 40%   Direction: 210°SSW
Pressure: 30.05"   Gusts: NA
Location:  42.8782°N, 73.3625°W
Report Text: KDDH 230101Z AUTO 21005KT 10SM OVC029 04/M08 A3005 RMK AO2 T00441083
Loading
Personal Weather Stations






























Interactive Weather Map New forecast layout! Learn more

10-Day Weather Forecast

Advertisements
Track Severe Weather on mobile